Latest Weather Observations for Cape Otway

IDV60801

Issued at 6:32 am EST Sunday 28 August 2016 (issued every 30 minutes, with the page automatically refreshed every 10 minutes)

About weather observations | Map of weather stations | Latest weather observations for VIC | Other Formats
Station Details ID: 090015 Name: CAPE OTWAY LIGHTHOUSE Lat: -38.86 Lon: 143.51 Height: 82.0 m
Data from the previous 72 hours. | See also: Recent months at Cape Otway
Date/Time
EST
Temp
°C
App
Temp
°C
Dew
Point
°C
Rel
Hum
%
Delta-T
°C
Wind Press
QNH
hPa
Press
MSL
hPa
Rain since
9am
mm
Dir  Spd
km/h
Gust
km/h
Spd
kts
Gust
kts
28/06:30am 10.1 5.8 7.7 85 1.2 WNW 20 30 11 16 1018.0 - 1.4
28/06:00am 10.2 6.2 8.3 88 0.9 NW 19 28 10 15 1017.7 1017.8 1.4
28/05:30am 10.9 6.4 8.5 85 1.2 WNW 22 30 12 16 1017.6 - 0.8
28/05:00am 11.5 7.2 8.0 79 1.7 W 20 32 11 17 1017.5 - 0.6
28/04:30am 12.1 5.4 5.7 65 3.0 WNW 30 43 16 23 1017.0 - 0.0
28/04:00am 12.0 5.6 5.4 64 3.1 WNW 28 41 15 22 1016.3 - 0.0
28/03:34am 12.6 5.6 4.1 56 3.9 WNW 30 48 16 26 1016.1 - 0.0
28/03:30am 12.6 5.6 4.3 57 3.8 WNW 30 46 16 25 1016.1 - 0.0
28/03:02am 12.9 4.9 3.6 53 4.2 WNW 35 54 19 29 1016.0 - 0.0
28/03:00am 12.9 5.2 3.6 53 4.2 NW 33 48 18 26 1016.0 1016.1 0.0
28/02:31am 12.8 5.1 3.5 53 4.2 NW 33 57 18 31 1015.8 - 0.0
28/02:30am 12.7 5.2 3.4 53 4.2 NW 32 46 17 25 1015.8 - 0.0
28/02:00am 12.6 5.5 3.5 54 4.1 NW 30 44 16 24 1015.8 - 0.0
28/01:31am 12.5 5.4 3.5 54 4.0 NW 30 48 16 26 1015.8 - 0.0
28/01:30am 12.6 5.1 3.5 54 4.1 NW 32 48 17 26 1015.8 - 0.0
28/01:00am 12.7 5.6 3.4 53 4.2 NW 30 48 16 26 1015.9 - 0.0
28/12:30am 13.1 5.3 2.9 50 4.5 NW 33 52 18 28 1015.7 - 0.0
28/12:00am 13.1 5.0 3.2 51 4.4 NW 35 57 19 31 1015.5 1015.7 0.0
 
Date/Time
EST
Temp
°C
App
Temp
°C
Dew
Point
°C
Rel
Hum
%
Delta-T
°C
Wind Press
QNH
hPa
Press
MSL
hPa
Rain since
9am
mm
Dir  Spd
km/h
Gust
km/h
Spd
kts
Gust
kts
27/11:30pm 13.0 4.4 2.8 50 4.5 NNW 37 63 20 34 1015.5 - 0.0
27/11:00pm 12.8 4.8 3.7 54 4.1 NNW 35 56 19 30 1015.7 - 0.0
27/10:30pm 12.8 4.5 4.0 55 4.0 NNW 37 61 20 33 1015.7 - 0.0
27/10:00pm 12.8 4.4 3.7 54 4.1 NNW 37 61 20 33 1015.8 - 0.0
27/09:30pm 12.5 4.2 4.2 57 3.8 NNW 37 69 20 37 1015.9 - 0.0
27/09:00pm 12.5 3.5 4.5 58 3.7 NNW 41 65 22 35 1016.1 1016.2 0.0
27/08:30pm 12.4 4.5 4.4 58 3.6 NNW 35 54 19 29 1016.3 - 0.0
27/08:00pm 12.3 4.8 4.5 59 3.6 NNW 33 56 18 30 1016.2 - 0.0
27/07:30pm 11.9 5.0 4.4 60 3.4 NNW 30 48 16 26 1016.2 - 0.0
27/07:00pm 11.7 5.1 4.4 61 3.3 NNW 28 46 15 25 1016.1 - 0.0
27/06:55pm 11.6 5.0 4.3 61 3.3 NNW 28 46 15 25 1016.0 - 0.0
27/06:30pm 11.4 5.9 4.2 61 3.2 NW 22 35 12 19 1016.3 - 0.0
27/06:00pm 11.3 6.3 4.5 63 3.1 NW 20 33 11 18 1016.4 1016.5 0.0
27/05:30pm 11.6 6.8 4.8 63 3.1 NW 19 28 10 15 1016.2 - 0.0
27/05:00pm 11.9 5.4 4.6 61 3.3 NW 28 43 15 23 1016.4 - 0.0
27/04:34pm 12.1 4.7 4.1 58 3.6 NW 32 50 17 27 1016.3 - 0.0
27/04:30pm 12.2 5.2 4.2 58 3.6 NW 30 46 16 25 1016.2 - 0.0
27/04:00pm 12.4 5.8 4.4 58 3.6 NW 28 48 15 26 1016.1 - 0.0
27/03:42pm 13.1 6.6 4.5 56 4.0 NW 28 48 15 26 1016.0 - 0.0
27/03:30pm 12.6 5.6 4.1 56 3.9 NNW 30 44 16 24 1016.1 - 0.0
27/03:18pm 12.7 6.1 4.2 56 3.9 NNW 28 46 15 25 1016.2 - 0.0
27/03:00pm 13.1 7.3 4.3 55 4.0 NW 24 39 13 21 1016.4 1016.5 0.0
27/02:30pm 12.3 6.9 4.3 58 3.6 NW 22 37 12 20 1016.9 - 0.0
27/02:00pm 13.1 6.5 4.0 54 4.1 NW 28 43 15 23 1017.1 - 0.0
27/01:30pm 13.4 6.9 4.6 55 4.1 NNW 28 43 15 23 1017.3 - 0.0
27/01:00pm 12.4 6.7 4.9 60 3.5 NW 24 41 13 22 1017.7 - 0.0
27/12:30pm 12.3 6.3 5.2 62 3.3 NW 26 43 14 23 1018.1 - 0.0
27/12:00pm 12.3 6.7 5.2 62 3.3 NW 24 39 13 21 1018.4 1018.5 0.0
27/11:30am 12.3 6.6 4.8 60 3.4 NW 24 39 13 21 1018.6 - 0.0
27/11:00am 11.9 5.8 4.9 62 3.2 NW 26 41 14 22 1019.0 - 0.0
27/10:37am 11.9 5.4 4.9 62 3.2 NW 28 46 15 25 1019.3 - 0.0
27/10:30am 11.5 5.4 4.9 64 3.0 NW 26 46 14 25 1019.3 - 0.0
27/10:00am 11.4 5.3 4.6 63 3.1 NW 26 41 14 22 1019.5 - 0.0
27/09:34am 11.2 4.7 4.7 64 3.0 NW 28 46 15 25 1019.5 - 0.0
27/09:30am 10.9 4.4 4.6 65 2.8 NW 28 41 15 22 1019.5 - 0.0
27/09:00am 10.7 4.9 4.6 66 2.7 NNW 24 44 13 24 1019.8 1019.9 4.4
27/08:50am 10.7 4.1 4.0 63 3.0 NNW 28 48 15 26 1019.7 - 4.4
27/08:30am 10.1 4.8 4.9 70 2.4 NNW 22 39 12 21 1019.4 - 4.4
27/08:00am 9.0 3.3 5.0 76 1.8 NNW 24 35 13 19 1019.4 - 4.4
27/07:30am 8.8 3.1 4.8 76 1.8 NNW 24 37 13 20 1019.4 - 4.4
27/07:00am 8.7 2.7 5.1 78 1.6 NNW 26 37 14 20 1019.3 - 4.4
27/06:30am 9.0 2.6 5.4 78 1.6 NNW 28 41 15 22 1019.4 - 4.4
27/06:00am 8.8 3.6 5.7 81 1.4 NW 22 35 12 19 1019.6 1019.7 4.4
27/05:30am 9.0 3.5 5.9 81 1.4 NW 24 35 13 19 1019.6 - 4.4
27/05:00am 9.0 3.1 5.9 81 1.4 NW 26 41 14 22 1019.5 - 4.4
27/04:30am 8.5 3.9 5.6 82 1.3 NW 19 33 10 18 1019.2 - 4.4
27/04:00am 7.8 2.5 5.1 83 1.2 NW 22 33 12 18 1019.0 - 4.4
27/03:30am 8.0 3.1 5.1 82 1.3 NNW 20 33 11 18 1018.8 - 4.4
27/03:00am 8.3 3.1 5.4 82 1.3 NNW 22 32 12 17 1018.9 1019.0 4.4
27/02:30am 9.0 3.1 5.9 81 1.4 NW 26 46 14 25 1019.2 - 4.4
27/02:00am 9.0 4.0 6.3 83 1.2 NW 22 39 12 21 1019.4 - 4.4
27/01:30am 8.8 3.7 6.2 84 1.2 NW 22 32 12 17 1019.6 - 4.4
27/01:00am 8.8 3.5 6.6 86 1.0 NW 24 35 13 19 1019.7 - 4.4
27/12:30am 8.5 3.5 6.5 87 0.9 NW 22 35 12 19 1019.9 - 4.4
27/12:00am 8.6 3.7 6.7 88 0.9 NW 22 39 12 21 1020.1 1020.2 4.4
 
Date/Time
EST
Temp
°C
App
Temp
°C
Dew
Point
°C
Rel
Hum
%
Delta-T
°C
Wind Press
QNH
hPa
Press
MSL
hPa
Rain since
9am
mm
Dir  Spd
km/h
Gust
km/h
Spd
kts
Gust
kts
26/11:30pm 9.0 4.1 7.1 88 0.9 NW 22 37 12 20 1020.3 - 4.2
26/11:00pm 9.2 4.0 7.3 88 0.9 NW 24 35 13 19 1020.3 - 4.2
26/10:30pm 9.6 4.9 7.7 88 0.9 NW 22 35 12 19 1020.4 - 3.8
26/10:00pm 9.4 4.7 7.7 89 0.8 NW 22 35 12 19 1020.4 - 3.8
26/09:30pm 8.9 4.0 7.0 88 0.9 NW 22 30 12 16 1020.5 - 3.8
26/09:00pm 9.9 4.8 7.8 87 1.0 WNW 24 37 13 20 1020.4 1020.5 3.2
26/08:30pm 10.3 4.6 8.2 87 1.0 W 28 41 15 22 1020.2 - 3.2
26/08:00pm 10.2 5.9 7.8 85 1.2 NW 20 28 11 15 1020.1 - 3.2
26/07:30pm 10.6 4.4 8.0 84 1.3 WNW 30 43 16 23 1020.2 - 3.2
26/07:00pm 10.1 3.6 8.0 87 1.0 W 32 44 17 24 1020.0 - 3.2
26/06:34pm 10.0 3.3 8.3 89 0.8 W 33 52 18 28 1019.9 - 3.2
26/06:30pm 10.1 3.7 8.4 89 0.8 W 32 43 17 23 1019.9 - 3.2
26/06:02pm 10.7 5.2 9.0 89 0.8 W 28 46 15 25 1019.7 - 3.2
26/06:00pm 10.4 4.8 8.7 89 0.8 W 28 37 15 20 1019.7 1019.8 3.2
26/05:30pm 9.7 3.2 8.0 89 0.8 W 32 46 17 25 1019.7 - 3.0
26/05:25pm 10.0 4.3 8.3 89 0.8 W 28 46 15 25 1019.6 - 2.8
26/05:00pm 9.7 2.2 8.1 90 0.8 W 37 50 20 27 1019.5 - 2.8
26/04:47pm 9.8 3.3 8.2 90 0.8 W 32 50 17 27 1019.4 - 2.8
26/04:30pm 10.2 4.2 8.5 89 0.8 W 30 39 16 21 1019.4 - 1.6
26/04:10pm 10.2 4.4 8.1 87 1.0 W 28 48 15 26 1019.2 - 1.2
26/04:00pm 10.1 4.3 7.9 86 1.1 W 28 43 15 23 1019.3 - 1.2
26/03:30pm 11.0 4.4 7.7 80 1.6 WNW 32 44 17 24 1019.2 - 0.4
26/03:11pm 11.2 4.4 6.9 75 2.1 WNW 32 50 17 27 1019.0 - 0.4
26/03:00pm 11.3 4.5 7.0 75 2.1 WNW 32 43 17 23 1019.1 1019.2 0.4
26/02:30pm 12.3 7.6 7.8 74 2.2 WNW 22 35 12 19 1019.4 - 0.4
26/02:00pm 11.6 7.0 8.3 80 1.6 WNW 22 35 12 19 1019.5 - 0.4
26/01:30pm 11.3 6.0 8.3 82 1.5 NW 26 41 14 22 1019.8 - 0.4
26/01:00pm 9.8 4.3 7.6 86 1.1 NW 26 39 14 21 1020.0 - 0.2
26/12:30pm 9.6 2.7 6.5 81 1.4 WNW 32 46 17 25 1020.3 - 0.2
26/12:11pm 10.3 3.9 6.8 79 1.7 WNW 30 48 16 26 1020.5 - 0.2
26/12:00pm 10.6 4.1 6.6 76 1.9 WNW 30 46 16 25 1020.5 1020.6 0.0
26/11:56am 10.2 4.0 6.2 76 1.9 WNW 28 46 15 25 1020.5 - 0.0
26/11:30am 11.2 5.8 6.3 72 2.3 WNW 24 33 13 18 1020.7 - 0.0
26/11:00am 11.2 6.4 5.7 69 2.6 NW 20 35 11 19 1020.8 - 0.0
26/10:30am 11.2 6.4 5.5 68 2.6 NW 20 28 11 15 1020.9 - 0.0
26/10:00am 11.7 5.8 5.8 67 2.8 W 26 35 14 19 1021.0 - 0.0
26/09:30am 10.9 4.8 5.0 67 2.7 W 26 39 14 21 1021.0 - 0.0
26/09:00am 10.8 5.5 4.9 67 2.7 W 22 32 12 17 1020.9 1021.0 0.4
26/08:30am 10.6 4.5 4.7 67 2.7 W 26 39 14 21 1020.7 - 0.4
26/08:00am 10.3 4.1 4.2 66 2.7 W 26 35 14 19 1020.6 - 0.4
26/07:30am 10.3 3.7 4.2 66 2.7 W 28 39 15 21 1020.3 - 0.4
26/07:00am 9.4 4.2 5.4 76 1.8 WSW 22 32 12 17 1020.1 - 0.4
26/06:30am 9.2 2.0 5.0 75 1.9 W 32 43 17 23 1020.1 - 0.4
26/06:17am 10.1 3.3 5.1 71 2.3 W 30 48 16 26 1019.8 - 0.4
26/06:00am 10.4 4.5 3.7 63 2.9 WSW 24 33 13 18 1019.7 1019.8 0.4
26/05:30am 10.4 3.6 3.2 61 3.1 WSW 28 41 15 22 1019.5 - 0.4
26/05:00am 10.5 4.2 4.0 64 2.9 W 26 41 14 22 1019.3 - 0.4
26/04:30am 10.5 3.8 3.5 62 3.1 WSW 28 43 15 23 1019.1 - 0.4
26/04:00am 10.6 4.7 4.1 64 2.9 W 24 35 13 19 1018.8 - 0.4
26/03:30am 10.0 4.4 3.5 64 2.8 W 22 33 12 18 1018.8 - 0.4
26/03:00am 9.9 5.3 5.5 74 2.0 W 19 26 10 14 1019.0 1019.1 0.4
26/02:30am 9.7 4.5 5.7 76 1.8 W 22 30 12 16 1019.1 - 0.4
26/02:00am 10.1 3.7 5.3 72 2.2 W 28 37 15 20 1019.2 - 0.4
26/01:30am 9.8 4.9 5.2 73 2.1 WSW 20 30 11 16 1019.4 - 0.4
26/01:00am 9.9 4.0 5.7 75 1.9 SW 26 35 14 19 1019.4 - 0.4
26/12:30am 10.2 5.0 5.4 72 2.2 WSW 22 33 12 18 1019.4 - 0.4
26/12:00am 10.1 4.9 5.3 72 2.2 WSW 22 33 12 18 1019.4 1019.5 0.4
 
Date/Time
EST
Temp
°C
App
Temp
°C
Dew
Point
°C
Rel
Hum
%
Delta-T
°C
Wind Press
QNH
hPa
Press
MSL
hPa
Rain since
9am
mm
Dir  Spd
km/h
Gust
km/h
Spd
kts
Gust
kts
25/11:30pm 9.8 5.6 5.8 76 1.8 WSW 17 28 9 15 1019.4 - 0.4
25/11:00pm 9.2 5.1 6.1 81 1.4 SSW 17 22 9 12 1019.5 - 0.4
25/10:30pm 9.9 5.8 6.1 77 1.8 WSW 17 24 9 13 1019.6 - 0.4
25/10:00pm 9.6 5.0 5.8 77 1.7 SW 19 26 10 14 1019.6 - 0.4
25/09:30pm 8.9 4.2 5.1 77 1.7 W 19 28 10 15 1019.6 - 0.4
25/09:00pm 10.0 4.8 5.4 73 2.1 WSW 22 32 12 17 1019.4 1019.5 0.0
25/08:30pm 10.7 5.7 3.7 62 3.1 SSW 19 24 10 13 1019.1 - 0.0
25/08:00pm 10.6 5.5 3.2 60 3.2 SSW 19 26 10 14 1019.0 - 0.0
25/07:30pm 10.6 4.6 3.4 61 3.2 SW 24 33 13 18 1018.8 - 0.0
25/07:00pm 10.6 4.6 3.2 60 3.2 SW 24 33 13 18 1018.5 - 0.0
25/06:30pm 10.6 3.9 3.9 63 3.0 SW 28 39 15 21 1018.1 - 0.0
25/06:00pm 10.8 5.1 4.9 67 2.7 SW 24 35 13 19 1017.7 1017.8 0.0
25/05:30pm 10.6 5.3 5.2 69 2.5 SSW 22 32 12 17 1017.5 - 0.0
25/05:00pm 10.7 3.9 5.0 68 2.6 SSW 30 39 16 21 1017.1 - 0.0
25/04:30pm 12.1 7.6 5.9 66 2.9 SW 19 26 10 14 1016.9 - 0.0
25/04:00pm 11.1 5.8 4.8 65 2.9 SSW 22 37 12 20 1016.8 - 0.0
25/03:30pm 10.9 5.6 5.2 68 2.6 SSW 22 37 12 20 1016.7 - 0.0
25/03:00pm 10.6 3.1 4.7 67 2.7 SW 33 46 18 25 1016.8 1016.9 0.0
25/02:30pm 11.9 6.4 3.9 58 3.6 SSW 22 32 12 17 1016.5 - 0.0
25/02:00pm 11.6 5.3 3.9 59 3.4 SSW 26 35 14 19 1016.3 - 0.0
25/01:30pm 11.7 5.7 3.2 56 3.8 SSW 24 35 13 19 1016.2 - 0.0
25/01:00pm 12.4 7.9 6.2 66 2.9 SW 19 24 10 13 1016.2 - 0.0
25/12:30pm 11.1 5.5 5.4 68 2.6 SSW 24 35 13 19 1016.2 - 0.0
25/12:00pm 11.0 5.3 5.1 67 2.7 SSW 24 32 13 17 1016.2 1016.3 0.0
25/11:30am 11.6 7.9 6.5 71 2.4 W 15 19 8 10 1016.3 - 0.0
25/11:00am 10.4 6.9 5.6 72 2.2 WSW 13 22 7 12 1016.4 - 0.0
25/10:30am 10.5 7.0 5.5 71 2.3 SW 13 20 7 11 1016.1 - 0.0
25/10:00am 9.4 6.1 4.8 73 2.1 SSW 11 15 6 8 1015.9 - 0.0
25/09:30am 9.7 3.9 4.5 70 2.3 SSW 24 39 13 21 1015.3 - 0.0
25/09:00am 9.5 2.9 4.3 70 2.3 SW 28 39 15 21 1015.3 1015.5 3.6
25/08:30am 10.7 5.1 5.3 69 2.5 SSW 24 32 13 17 1015.0 - 3.4
25/08:00am 9.8 4.0 4.2 68 2.5 SSW 24 35 13 19 1014.7 - 3.4
25/07:30am 8.5 4.7 3.9 73 2.0 W 13 19 7 10 1014.4 - 3.4
25/07:00am 9.7 3.0 3.7 66 2.6 SSW 28 41 15 22 1014.0 - 3.2

Other Formats:

Comma delimited format used in spreadsheet applications
http://www.bom.gov.au/fwo/IDV60801/IDV60801.94842.axf

JavaScript Object Notation format (JSON) in row-major order
http://www.bom.gov.au/fwo/IDV60801/IDV60801.94842.json